createdAt,value
2017-11-27T00:01:48.330Z,5.24
2017-11-27T00:04:16.248Z,5.22
2017-11-27T00:06:44.158Z,5.30
2017-11-27T00:09:12.084Z,5.34
2017-11-27T00:11:40.089Z,5.31
2017-11-27T00:14:08.022Z,5.34
2017-11-27T00:16:35.951Z,5.29
2017-11-27T00:19:04.261Z,5.28
2017-11-27T00:21:32.181Z,5.31
2017-11-27T00:24:00.485Z,5.32
2017-11-27T00:26:28.411Z,5.36
2017-11-27T00:28:56.334Z,5.39
2017-11-27T00:31:24.256Z,5.42
2017-11-27T00:33:52.169Z,5.40
2017-11-27T00:36:20.124Z,5.36
2017-11-27T00:38:48.033Z,5.28
2017-11-27T00:41:15.974Z,5.27
2017-11-27T00:43:43.881Z,5.24
2017-11-27T00:46:11.794Z,5.20
2017-11-27T00:48:39.718Z,5.14
2017-11-27T00:51:07.621Z,5.26
2017-11-27T00:53:35.937Z,5.27
2017-11-27T00:56:03.846Z,5.27
2017-11-27T00:58:31.770Z,5.26
2017-11-27T01:00:59.725Z,5.27
2017-11-27T01:03:27.658Z,5.27
2017-11-27T01:05:55.955Z,5.19
2017-11-27T01:08:23.867Z,5.28
2017-11-27T01:10:51.786Z,5.31
2017-11-27T01:13:19.712Z,5.30
2017-11-27T01:15:47.650Z,5.30
2017-11-27T01:18:15.610Z,5.35
2017-11-27T01:20:43.525Z,5.38
2017-11-27T01:23:11.459Z,5.40
2017-11-27T01:25:39.465Z,5.40
2017-11-27T01:28:07.380Z,5.43
2017-11-27T01:30:35.282Z,5.42
2017-11-27T01:33:03.201Z,5.35
2017-11-27T01:35:31.502Z,5.38
2017-11-27T01:37:59.438Z,5.34
2017-11-27T01:40:27.778Z,5.30
2017-11-27T01:42:55.702Z,5.24
2017-11-27T01:45:23.623Z,5.31
2017-11-27T01:47:51.532Z,5.27
2017-11-27T01:50:19.473Z,5.24
2017-11-27T01:52:47.394Z,5.30
2017-11-27T01:55:15.360Z,5.32
2017-11-27T01:57:43.287Z,5.38
2017-11-27T02:00:11.622Z,5.31
2017-11-27T02:02:39.561Z,5.32
2017-11-27T02:05:07.843Z,5.34
2017-11-27T02:07:35.761Z,5.31
2017-11-27T02:10:03.678Z,5.28
2017-11-27T02:12:31.649Z,5.23
2017-11-27T02:14:59.567Z,5.28
2017-11-27T02:17:27.486Z,5.27
2017-11-27T02:19:55.418Z,5.37
2017-11-27T02:22:23.744Z,5.31
2017-11-27T02:24:51.753Z,5.36
2017-11-27T02:27:19.675Z,5.42
2017-11-27T02:29:47.589Z,5.34
2017-11-27T02:32:15.500Z,5.28
2017-11-27T02:34:43.451Z,5.28
2017-11-27T02:37:11.356Z,5.30
2017-11-27T02:39:39.273Z,5.27
2017-11-27T02:42:07.581Z,5.40
2017-11-27T02:44:35.495Z,5.30
2017-11-27T02:47:03.427Z,5.35
2017-11-27T02:49:31.335Z,5.35
2017-11-27T02:51:59.256Z,5.27
2017-11-27T02:54:27.175Z,5.26
2017-11-27T02:56:55.119Z,5.23
2017-11-27T02:59:23.029Z,5.23
2017-11-27T03:01:51.366Z,5.28
2017-11-27T03:04:19.285Z,5.29
2017-11-27T03:06:48.097Z,5.22
2017-11-27T03:09:16.017Z,5.21
2017-11-27T03:11:43.935Z,5.18
2017-11-27T03:14:11.862Z,5.19
2017-11-27T03:16:40.186Z,5.28
2017-11-27T03:19:08.091Z,5.27
2017-11-27T03:21:36.012Z,5.41
2017-11-27T03:24:03.929Z,5.37
2017-11-27T03:26:31.874Z,5.43
2017-11-27T03:28:59.875Z,5.28
2017-11-27T03:31:28.207Z,5.22
2017-11-27T03:33:56.121Z,5.16
2017-11-27T03:36:24.036Z,5.16
2017-11-27T03:38:51.950Z,5.21
2017-11-27T03:41:19.896Z,5.23
2017-11-27T03:43:47.811Z,5.23
2017-11-27T03:46:16.119Z,5.19
2017-11-27T03:48:44.027Z,5.10
2017-11-27T03:51:11.953Z,5.10
2017-11-27T03:53:39.915Z,5.08
2017-11-27T03:56:07.870Z,5.15
2017-11-27T03:58:35.798Z,5.24
2017-11-27T04:01:03.716Z,5.21
2017-11-27T04:03:31.710Z,5.19
2017-11-27T04:05:59.626Z,5.23
2017-11-27T04:08:27.967Z,5.23
2017-11-27T04:10:55.903Z,5.19
2017-11-27T04:13:23.846Z,5.10
2017-11-27T04:15:52.154Z,4.98
2017-11-27T04:18:20.173Z,4.93
2017-11-27T04:20:48.096Z,4.81
2017-11-27T04:23:16.018Z,4.85
2017-11-27T04:25:44.325Z,4.86
2017-11-27T04:28:12.238Z,4.93
2017-11-27T04:30:40.190Z,5.02
2017-11-27T04:33:08.101Z,5.08
2017-11-27T04:35:36.407Z,5.09
2017-11-27T04:38:04.338Z,5.19
2017-11-27T04:40:32.654Z,5.15
2017-11-27T04:43:00.573Z,5.15
2017-11-27T04:45:28.516Z,5.19
2017-11-27T04:47:56.483Z,5.17
2017-11-27T04:50:24.393Z,5.12
2017-11-27T04:52:52.702Z,5.16
2017-11-27T04:55:20.625Z,5.18
2017-11-27T04:57:48.536Z,5.00
2017-11-27T05:00:16.455Z,4.93
2017-11-27T05:02:44.395Z,4.91
2017-11-27T05:05:12.313Z,4.91
2017-11-27T05:07:40.631Z,4.80
2017-11-27T05:10:08.598Z,4.81
2017-11-27T05:12:36.565Z,4.96
2017-11-27T05:15:04.473Z,4.96
2017-11-27T05:17:32.401Z,4.75
2017-11-27T05:20:00.372Z,4.75
2017-11-27T05:22:28.282Z,4.67
2017-11-27T05:24:56.405Z,4.62
2017-11-27T05:27:24.346Z,4.51
2017-11-27T05:29:52.817Z,4.50
2017-11-27T05:32:20.750Z,4.31
2017-11-27T05:34:48.673Z,4.26
2017-11-27T05:37:16.993Z,4.22
2017-11-27T05:39:44.922Z,4.15
2017-11-27T05:42:12.858Z,4.06
2017-11-27T05:44:40.792Z,4.14
2017-11-27T05:47:08.857Z,4.16
2017-11-27T05:49:36.774Z,4.18
2017-11-27T05:52:04.694Z,4.26
2017-11-27T05:54:32.829Z,4.10
2017-11-27T05:57:01.158Z,4.13
2017-11-27T05:59:29.064Z,4.06
2017-11-27T06:01:56.994Z,3.98
2017-11-27T06:04:25.028Z,3.94
2017-11-27T06:06:52.999Z,3.80
2017-11-27T06:09:20.949Z,3.65
2017-11-27T06:11:49.357Z,3.57
2017-11-27T06:14:17.266Z,3.59
2017-11-27T06:16:45.194Z,3.57
2017-11-27T06:19:13.119Z,3.43
2017-11-27T06:21:41.026Z,3.34
2017-11-27T06:24:08.985Z,3.30
2017-11-27T06:26:37.099Z,3.15
2017-11-27T06:29:05.009Z,3.04
2017-11-27T06:31:33.330Z,3.04
2017-11-27T06:34:01.228Z,3.00
2017-11-27T06:36:29.170Z,2.91
2017-11-27T06:38:57.074Z,2.97
2017-11-27T06:41:24.987Z,2.90
2017-11-27T06:43:52.912Z,2.85
2017-11-27T06:46:20.846Z,2.80
2017-11-27T06:48:48.749Z,2.83
2017-11-27T06:51:16.724Z,2.78
2017-11-27T06:53:44.641Z,2.74
2017-11-27T06:56:12.576Z,2.78
2017-11-27T06:58:40.920Z,2.73
2017-11-27T07:01:08.829Z,2.74
2017-11-27T07:03:36.764Z,2.70
2017-11-27T07:06:04.670Z,2.66
2017-11-27T07:08:32.599Z,2.70
2017-11-27T07:11:00.766Z,2.70
2017-11-27T07:13:28.688Z,2.68
2017-11-27T07:15:56.617Z,2.69
2017-11-27T07:18:24.546Z,2.68
2017-11-27T07:20:52.463Z,2.75
2017-11-27T07:23:20.817Z,2.81
2017-11-27T07:25:48.741Z,2.87
2017-11-27T07:28:16.653Z,2.98
2017-11-27T07:30:44.568Z,3.30
2017-11-27T07:33:12.490Z,3.82
2017-11-27T07:35:40.419Z,4.29
2017-11-27T07:38:13.805Z,4.78
2017-11-27T07:40:41.738Z,5.24
2017-11-27T07:43:10.116Z,5.56
2017-11-27T07:45:38.459Z,6.05
2017-11-27T07:48:06.393Z,6.64
2017-11-27T07:50:34.316Z,6.74
2017-11-27T07:53:02.233Z,7.19
2017-11-27T07:55:30.261Z,7.58
2017-11-27T07:57:58.173Z,8.01
2017-11-27T08:00:26.195Z,8.23
2017-11-27T08:02:54.097Z,8.45
2017-11-27T08:05:22.045Z,9.39
2017-11-27T08:07:50.346Z,9.79
2017-11-27T08:10:18.277Z,9.02
2017-11-27T08:12:46.202Z,8.30
2017-11-27T08:15:14.113Z,8.44
2017-11-27T08:17:42.041Z,8.69
2017-11-27T08:20:09.957Z,8.86
2017-11-27T08:22:37.878Z,8.62
2017-11-27T08:25:05.856Z,9.35
2017-11-27T08:27:33.764Z,9.61
2017-11-27T08:30:02.093Z,10.06
2017-11-27T08:32:30.029Z,10.46
2017-11-27T08:34:58.344Z,10.84
2017-11-27T08:37:26.272Z,11.06
2017-11-27T08:39:54.227Z,11.40
2017-11-27T08:42:22.556Z,10.25
2017-11-27T08:44:50.475Z,9.81
2017-11-27T08:47:18.863Z,10.17
2017-11-27T08:49:47.213Z,9.60
2017-11-27T08:52:15.135Z,9.03
2017-11-27T08:54:43.054Z,8.54
2017-11-27T08:57:10.973Z,7.88
2017-11-27T08:59:38.882Z,7.04
2017-11-27T09:02:06.801Z,6.93
2017-11-27T09:04:34.719Z,6.72
2017-11-27T09:07:02.723Z,6.29
2017-11-27T09:09:31.036Z,6.20
2017-11-27T09:11:58.956Z,6.22
2017-11-27T09:14:27.280Z,6.11
2017-11-27T09:16:55.289Z,6.01
2017-11-27T09:19:23.198Z,5.83
2017-11-27T09:21:51.106Z,5.79
2017-11-27T09:24:19.016Z,5.94
2017-11-27T09:26:47.890Z,6.03
2017-11-27T09:29:16.190Z,5.88
2017-11-27T09:31:44.129Z,6.05
2017-11-27T09:34:12.035Z,6.08
2017-11-27T09:36:39.953Z,5.90
2017-11-27T09:39:07.944Z,5.80
2017-11-27T09:41:36.252Z,5.93
2017-11-27T09:44:04.155Z,5.95
2017-11-27T09:46:32.071Z,6.10
2017-11-27T09:49:00.405Z,6.25
2017-11-27T09:51:28.315Z,6.10
2017-11-27T09:53:56.224Z,5.88
2017-11-27T09:56:24.142Z,5.91
2017-11-27T09:58:52.490Z,5.79
2017-11-27T10:01:20.470Z,5.84
2017-11-27T10:03:48.436Z,5.89
2017-11-27T10:06:16.373Z,5.95
2017-11-27T10:08:44.292Z,5.96
2017-11-27T10:11:12.619Z,6.00
2017-11-27T10:13:40.533Z,6.02
2017-11-27T10:16:08.489Z,6.14
2017-11-27T10:18:36.394Z,6.39
2017-11-27T10:21:04.302Z,6.33
2017-11-27T10:23:32.205Z,6.46
2017-11-27T10:26:00.533Z,6.36
2017-11-27T10:28:28.550Z,6.29
2017-11-27T10:30:56.461Z,6.29
2017-11-27T10:33:24.371Z,6.42
2017-11-27T10:35:52.308Z,6.57
2017-11-27T10:38:20.209Z,6.79
2017-11-27T10:40:48.149Z,7.03
2017-11-27T10:43:16.152Z,7.27
2017-11-27T10:45:44.068Z,7.52
2017-11-27T10:48:12.015Z,7.97
2017-11-27T10:50:39.922Z,8.29
2017-11-27T10:53:07.850Z,8.37
2017-11-27T10:55:36.198Z,8.22
2017-11-27T10:58:04.131Z,8.18
2017-11-27T11:00:37.618Z,7.80
2017-11-27T11:03:05.550Z,7.56
2017-11-27T11:05:33.876Z,7.48
2017-11-27T11:08:01.834Z,7.38
2017-11-27T11:10:29.767Z,7.48
2017-11-27T11:12:57.693Z,7.23
2017-11-27T11:15:25.631Z,7.16
2017-11-27T11:17:53.529Z,6.97
2017-11-27T11:20:21.444Z,6.84
2017-11-27T11:22:49.747Z,6.90
2017-11-27T11:25:17.649Z,6.88
2017-11-27T11:27:45.554Z,7.11
2017-11-27T11:30:13.880Z,7.17
2017-11-27T11:32:41.817Z,6.97
2017-11-27T11:35:09.750Z,6.82
2017-11-27T11:37:37.669Z,6.82
2017-11-27T11:40:05.585Z,6.71
2017-11-27T11:42:33.557Z,6.83
2017-11-27T11:45:01.477Z,6.80
2017-11-27T11:47:29.433Z,6.82
2017-11-27T11:49:57.345Z,6.70
2017-11-27T11:52:25.265Z,6.65
2017-11-27T11:54:53.208Z,6.65
2017-11-27T11:57:21.600Z,6.58
2017-11-27T11:59:49.529Z,6.50
2017-11-27T12:02:17.446Z,6.50
2017-11-27T12:04:45.358Z,6.53
2017-11-27T12:07:13.320Z,6.61
2017-11-27T12:09:41.234Z,6.66
2017-11-27T12:12:09.154Z,6.67
2017-11-27T12:14:37.066Z,6.58
2017-11-27T12:17:05.369Z,6.54
2017-11-27T12:19:33.293Z,6.61
2017-11-27T12:22:01.205Z,6.59
2017-11-27T12:24:29.105Z,6.57
2017-11-27T12:26:57.031Z,6.59
2017-11-27T12:29:24.950Z,6.67
2017-11-27T12:31:52.949Z,6.64
2017-11-27T12:34:20.878Z,6.57
2017-11-27T12:36:49.603Z,6.52
2017-11-27T12:39:17.909Z,6.31
2017-11-27T12:41:45.823Z,6.33
2017-11-27T12:44:13.746Z,6.35
2017-11-27T12:46:41.673Z,6.53
2017-11-27T12:49:09.581Z,6.57
2017-11-27T12:51:37.506Z,6.48
2017-11-27T12:54:05.422Z,6.63
2017-11-27T12:56:33.337Z,6.65
2017-11-27T12:59:01.286Z,6.46
2017-11-27T13:01:29.393Z,6.43
2017-11-27T13:03:57.313Z,6.66
2017-11-27T13:06:25.377Z,6.74
2017-11-27T13:08:53.294Z,6.68
2017-11-27T13:11:21.211Z,6.58
2017-11-27T13:13:49.128Z,6.51
2017-11-27T13:16:17.046Z,6.55
2017-11-27T13:18:44.954Z,6.60
2017-11-27T13:21:12.887Z,6.52
2017-11-27T13:23:40.952Z,6.55
2017-11-27T13:26:08.861Z,6.55
2017-11-27T13:28:36.767Z,6.58
2017-11-27T13:31:05.104Z,6.37
2017-11-27T13:33:32.998Z,6.36
2017-11-27T13:36:00.923Z,6.20
2017-11-27T13:38:28.838Z,6.23
2017-11-27T13:40:57.152Z,6.29
2017-11-27T13:43:25.049Z,6.26
2017-11-27T13:45:52.966Z,6.21
2017-11-27T13:48:20.886Z,6.09
2017-11-27T13:50:48.801Z,6.07
2017-11-27T13:53:16.721Z,5.99
2017-11-27T13:55:44.637Z,5.81
2017-11-27T13:58:12.562Z,5.69
2017-11-27T14:00:40.496Z,5.59
2017-11-27T14:03:08.416Z,5.42
2017-11-27T14:05:36.791Z,5.42
2017-11-27T14:08:04.706Z,5.13
2017-11-27T14:10:32.606Z,5.00
2017-11-27T14:13:00.513Z,4.93
2017-11-27T14:15:28.829Z,4.83
2017-11-27T14:17:56.742Z,4.76
2017-11-27T14:20:25.068Z,4.75
2017-11-27T14:22:52.975Z,4.66
2017-11-27T14:25:21.304Z,4.64
2017-11-27T14:27:49.220Z,4.63
2017-11-27T14:30:17.143Z,4.57
2017-11-27T14:32:45.134Z,4.51
2017-11-27T14:35:13.072Z,4.35
2017-11-27T14:37:40.974Z,4.32
2017-11-27T14:40:08.880Z,4.33
2017-11-27T14:42:36.805Z,4.23
2017-11-27T14:45:04.707Z,4.20
2017-11-27T14:47:33.043Z,4.21
2017-11-27T14:50:00.976Z,4.17
2017-11-27T14:52:28.889Z,4.14
2017-11-27T14:54:56.796Z,4.12
2017-11-27T14:57:25.100Z,4.13
2017-11-27T14:59:53.016Z,4.06
2017-11-27T15:02:21.024Z,3.98
2017-11-27T15:04:48.942Z,3.98
2017-11-27T15:07:16.868Z,3.93
2017-11-27T15:09:44.805Z,3.99
2017-11-27T15:12:12.722Z,3.95
2017-11-27T15:14:40.733Z,3.92
2017-11-27T15:17:08.646Z,3.95
2017-11-27T15:19:36.545Z,3.88
2017-11-27T15:22:04.457Z,3.94
2017-11-27T15:24:32.759Z,3.92
2017-11-27T15:27:00.665Z,3.94
2017-11-27T15:29:28.575Z,3.92
2017-11-27T15:31:56.894Z,3.85
2017-11-27T15:34:24.802Z,3.83
2017-11-27T15:36:52.726Z,3.83
2017-11-27T15:39:20.635Z,3.83
2017-11-27T15:41:48.552Z,3.78
2017-11-27T15:44:16.459Z,3.79
2017-11-27T15:46:44.392Z,3.77
2017-11-27T15:49:12.299Z,3.76
2017-11-27T15:51:40.224Z,3.81
2017-11-27T15:54:08.119Z,3.75
2017-11-27T15:56:36.049Z,3.76
2017-11-27T15:59:03.962Z,3.79
2017-11-27T16:01:31.872Z,3.79
2017-11-27T16:04:00.190Z,3.81
2017-11-27T16:06:28.101Z,3.77
2017-11-27T16:08:56.427Z,3.82
2017-11-27T16:11:24.350Z,3.81
2017-11-27T16:13:52.658Z,3.80
2017-11-27T16:16:20.579Z,3.78
2017-11-27T16:18:48.504Z,3.79
2017-11-27T16:21:16.419Z,3.74
2017-11-27T16:23:44.369Z,3.72
2017-11-27T16:26:12.290Z,3.76
2017-11-27T16:28:40.210Z,3.71
2017-11-27T16:31:08.205Z,3.74
2017-11-27T16:33:36.516Z,3.76
2017-11-27T16:36:04.511Z,3.77
2017-11-27T16:38:32.448Z,3.82
2017-11-27T16:41:00.361Z,3.81
2017-11-27T16:43:28.270Z,3.83
2017-11-27T16:45:56.579Z,3.80
2017-11-27T16:48:24.539Z,3.81
2017-11-27T16:50:52.456Z,3.81
2017-11-27T16:53:20.368Z,3.79
2017-11-27T16:55:48.281Z,3.76
2017-11-27T16:58:16.213Z,3.80
2017-11-27T17:00:44.226Z,3.78
2017-11-27T17:03:12.152Z,3.76
2017-11-27T17:05:40.068Z,3.73
2017-11-27T17:08:07.974Z,3.78
2017-11-27T17:10:35.877Z,3.77
2017-11-27T17:13:03.784Z,3.78
2017-11-27T17:15:32.099Z,3.77
2017-11-27T17:17:59.993Z,3.73
2017-11-27T17:20:27.935Z,3.79
2017-11-27T17:22:55.849Z,3.83
2017-11-27T17:25:23.775Z,3.78
2017-11-27T17:27:51.687Z,3.81
2017-11-27T17:30:19.604Z,3.86
2017-11-27T17:32:47.517Z,3.90
2017-11-27T17:35:15.445Z,3.92
2017-11-27T17:37:43.415Z,3.89
2017-11-27T17:40:11.344Z,3.90
2017-11-27T17:42:39.657Z,3.97
2017-11-27T17:45:07.554Z,3.93
2017-11-27T17:47:35.473Z,3.91
2017-11-27T17:50:04.385Z,3.92
2017-11-27T17:52:32.290Z,3.94
2017-11-27T17:55:00.189Z,3.92
2017-11-27T17:57:28.518Z,3.97
2017-11-27T17:59:56.513Z,3.96
2017-11-27T18:02:24.442Z,3.95
2017-11-27T18:04:52.367Z,3.96
2017-11-27T18:07:20.676Z,4.00
2017-11-27T18:09:48.574Z,3.98
2017-11-27T18:12:16.493Z,4.03
2017-11-27T18:14:44.400Z,4.07
2017-11-27T18:17:12.415Z,4.09
2017-11-27T18:19:40.766Z,4.03
2017-11-27T18:22:08.695Z,4.09
2017-11-27T18:24:36.667Z,4.12
2017-11-27T18:27:04.634Z,4.19
2017-11-27T18:29:32.729Z,4.17
2017-11-27T18:32:00.715Z,4.24
2017-11-27T18:34:28.654Z,4.19
2017-11-27T18:36:56.586Z,4.23
2017-11-27T18:39:24.508Z,4.29
2017-11-27T18:41:52.477Z,4.30
2017-11-27T18:44:20.400Z,4.36
2017-11-27T18:46:48.634Z,4.33
2017-11-27T18:49:16.542Z,4.34
2017-11-27T18:51:44.461Z,4.38
2017-11-27T18:54:12.365Z,4.33
2017-11-27T18:56:40.693Z,4.40
2017-11-27T18:59:08.626Z,4.41
2017-11-27T19:01:36.556Z,4.42
2017-11-27T19:04:04.462Z,4.43
2017-11-27T19:06:32.374Z,4.48
2017-11-27T19:09:00.311Z,4.52
2017-11-27T19:11:28.299Z,4.58
2017-11-27T19:13:56.221Z,4.57
2017-11-27T19:16:24.524Z,4.54
2017-11-27T19:18:52.430Z,4.62
2017-11-27T19:21:20.344Z,4.63
2017-11-27T19:23:48.258Z,4.58
2017-11-27T19:26:16.184Z,4.65
2017-11-27T19:28:44.085Z,4.64
2017-11-27T19:31:11.996Z,4.62
2017-11-27T19:33:40.311Z,4.67
2017-11-27T19:36:08.272Z,4.65
2017-11-27T19:38:36.196Z,4.65
2017-11-27T19:41:04.127Z,4.65
2017-11-27T19:43:32.141Z,4.65
2017-11-27T19:46:00.475Z,4.77
2017-11-27T19:48:28.412Z,4.78
2017-11-27T19:50:56.330Z,4.73
2017-11-27T19:53:24.240Z,4.68
2017-11-27T19:55:52.159Z,4.69
2017-11-27T19:58:20.105Z,4.73
2017-11-27T20:00:48.057Z,4.77
2017-11-27T20:03:15.986Z,4.81
2017-11-27T20:05:43.918Z,4.80
2017-11-27T20:08:11.826Z,4.72
2017-11-27T20:10:39.745Z,4.77
2017-11-27T20:13:07.697Z,4.79
2017-11-27T20:15:35.656Z,4.80
2017-11-27T20:18:03.956Z,4.80
2017-11-27T20:20:31.880Z,4.82
2017-11-27T20:22:59.786Z,4.89
2017-11-27T20:25:27.701Z,4.82
2017-11-27T20:27:55.670Z,4.86
2017-11-27T20:30:23.615Z,4.83
2017-11-27T20:32:51.625Z,4.89
2017-11-27T20:35:19.613Z,4.91
2017-11-27T20:37:47.581Z,4.96
2017-11-27T20:40:15.893Z,4.98
2017-11-27T20:42:43.825Z,5.08
2017-11-27T20:45:11.761Z,5.06
2017-11-27T20:47:39.694Z,5.02
2017-11-27T20:50:07.756Z,5.05
2017-11-27T20:52:35.687Z,5.05
2017-11-27T20:55:03.614Z,5.08
2017-11-27T20:57:31.552Z,5.00
2017-11-27T20:59:59.470Z,5.05
2017-11-27T21:02:27.399Z,5.00
2017-11-27T21:04:55.334Z,5.10
2017-11-27T21:07:23.725Z,5.05
2017-11-27T21:09:52.022Z,5.04
2017-11-27T21:12:19.945Z,5.08
2017-11-27T21:14:47.854Z,5.08
2017-11-27T21:17:16.000Z,5.12
2017-11-27T21:19:44.305Z,5.14
2017-11-27T21:22:12.231Z,5.20
2017-11-27T21:24:40.147Z,5.22
2017-11-27T21:27:08.075Z,5.27
2017-11-27T21:29:36.471Z,5.34
2017-11-27T21:32:04.788Z,5.29
2017-11-27T21:34:32.711Z,5.28
2017-11-27T21:37:01.026Z,5.29
2017-11-27T21:39:28.952Z,5.37
2017-11-27T21:41:57.265Z,5.41
2017-11-27T21:44:25.202Z,5.33
2017-11-27T21:46:53.523Z,5.30
2017-11-27T21:49:21.462Z,5.36
2017-11-27T21:51:49.381Z,5.37
2017-11-27T21:54:17.356Z,5.41
2017-11-27T21:56:45.283Z,5.42
2017-11-27T21:59:13.209Z,5.39
2017-11-27T22:01:41.132Z,5.41
2017-11-27T22:04:09.033Z,5.46
2017-11-27T22:06:36.945Z,5.46
2017-11-27T22:09:04.857Z,5.47
2017-11-27T22:11:32.808Z,5.50
2017-11-27T22:14:00.731Z,5.44
2017-11-27T22:16:29.041Z,5.46
2017-11-27T22:18:56.958Z,5.50
2017-11-27T22:21:24.920Z,5.50
2017-11-27T22:23:52.825Z,5.54
2017-11-27T22:26:20.774Z,5.56
2017-11-27T22:28:49.086Z,5.56
2017-11-27T22:31:16.989Z,5.60
2017-11-27T22:33:44.912Z,5.54
2017-11-27T22:36:12.828Z,5.65
2017-11-27T22:38:40.756Z,5.56
2017-11-27T22:41:08.676Z,5.52
2017-11-27T22:43:36.612Z,5.53
2017-11-27T22:46:04.602Z,5.51
2017-11-27T22:48:32.510Z,5.49
2017-11-27T22:51:00.423Z,5.52
2017-11-27T22:53:28.337Z,5.51
2017-11-27T22:55:56.750Z,5.48
2017-11-27T22:58:24.672Z,5.45
2017-11-27T23:00:52.993Z,5.50
2017-11-27T23:03:20.898Z,5.55
2017-11-27T23:05:48.815Z,5.42
2017-11-27T23:08:16.713Z,5.56
2017-11-27T23:10:44.618Z,5.53
2017-11-27T23:13:12.555Z,5.52
2017-11-27T23:15:40.471Z,5.51
2017-11-27T23:18:08.386Z,5.51
2017-11-27T23:20:36.293Z,5.54
2017-11-27T23:23:04.602Z,5.45
2017-11-27T23:25:32.505Z,5.46
2017-11-27T23:28:00.412Z,5.41
2017-11-27T23:30:28.736Z,5.47
2017-11-27T23:32:56.633Z,5.50
2017-11-27T23:35:24.612Z,5.52
2017-11-27T23:37:52.528Z,5.51
2017-11-27T23:40:20.429Z,5.54
2017-11-27T23:42:48.337Z,5.47
2017-11-27T23:45:16.255Z,5.46
2017-11-27T23:47:44.168Z,5.48
2017-11-27T23:50:12.484Z,5.53
2017-11-27T23:52:40.406Z,5.52
2017-11-27T23:55:08.709Z,5.50
2017-11-27T23:57:36.621Z,5.59
